Data for 08/13/2005

Time Sea-Level Adjusted Pressure Absolute Pressure Temperature Relative Humidity Dew Point   
(mb) (inHg) (mb) (inHg) (C) (F) (%) (C) (F)
00:05 1024 30.24 853 25.19 6.8 44.2 85 4.4 39.9
00:10 1024 30.24 853 25.19 6.7 44.1 84 4.2 39.6
00:15 1024 30.24 853 25.19 6.8 44.2 84 4.3 39.8
00:20 1024 30.24 853 25.19 6.7 44.1 85 4.3 39.7
00:25 1024 30.24 853 25.19 6.7 44.1 84 4.3 39.7
00:30 1024 30.24 853 25.19 6.7 44 84 4.2 39.6
00:35 1024 30.24 853 25.19 6.6 44 85 4.2 39.6
00:40 1024 30.24 853 25.19 6.7 44 84 4.1 39.4
00:45 1024 30.24 853 25.19 6.8 44.2 83 4.1 39.3
00:50 1024 30.24 853 25.19 6.8 44.2 83 4 39.3
00:55 1024 30.24 854 25.22 6.8 44.3 83 4.2 39.6
01:00 1024 30.24 854 25.22 6.8 44.2 83 4.1 39.4
01:05 1024 30.24 854 25.22 6.7 44.1 83 4.1 39.4
01:10 1024 30.24 854 25.22 6.8 44.2 83 4.1 39.5
01:15 1024 30.24 854 25.22 6.7 44.1 84 4.2 39.5
01:20 1024 30.24 854 25.22 6.8 44.2 83 4.1 39.3
01:25 1024 30.24 854 25.22 6.8 44.2 83 4 39.3
01:30 1024 30.24 854 25.22 6.8 44.3 82 4 39.2
01:35 1024 30.24 854 25.22 6.8 44.2 82 3.9 39.1
01:40 1024 30.24 853 25.19 6.8 44.3 83 4.1 39.3
01:45 1024 30.24 853 25.19 6.8 44.2 82 3.9 39
01:50 1024 30.24 853 25.19 6.9 44.3 81 3.8 38.9
01:55 1024 30.24 853 25.19 6.9 44.4 82 4 39.1
02:00 1024 30.24 853 25.19 6.8 44.3 81 3.8 38.8
02:05 1024 30.24 853 25.19 6.7 44 81 3.7 38.7
02:10 1024 30.24 853 25.19 6.6 44 81 3.7 38.6
02:15 1024 30.24 853 25.19 6.6 43.9 82 3.7 38.6
02:20 1024 30.24 853 25.19 6.5 43.7 83 3.8 38.8
02:25 1024 30.24 853 25.19 6.6 43.8 83 3.8 38.9
02:30 1024 30.24 854 25.22 6.6 43.8 83 3.9 39
02:35 1024 30.24 853 25.19 6.6 43.8 84 4 39.2
02:40 1024 30.24 853 25.19 6.6 43.8 83 3.9 39
02:45 1024 30.24 853 25.19 6.6 43.9 82 3.7 38.7
02:50 1024 30.24 853 25.19 6.6 43.8 82 3.7 38.7
02:55 1024 30.24 853 25.19 6.6 43.9 82 3.7 38.7
03:00 1024 30.24 853 25.19 6.6 43.8 82 3.7 38.7
03:05 1024 30.24 853 25.19 6.6 43.9 81 3.6 38.5
03:10 1024 30.24 853 25.19 6.5 43.8 82 3.6 38.5
03:15 1024 30.24 853 25.19 6.5 43.7 81 3.5 38.3
03:20 1024 30.24 853 25.19 6.6 43.9 81 3.6 38.4
03:25 1024 30.24 853 25.19 6.6 43.9 80 3.4 38.1
03:30 1024 30.24 853 25.19 6.6 43.9 80 3.4 38.2
03:35 1024 30.24 853 25.19 6.5 43.8 80 3.3 38
03:40 1024 30.24 853 25.19 6.6 43.8 80 3.4 38.2
03:45 1024 30.24 853 25.19 6.5 43.7 81 3.5 38.2
03:50 1024 30.24 853 25.19 6.4 43.6 81 3.5 38.2
03:55 1024 30.24 853 25.19 6.4 43.6 82 3.5 38.4
04:00 1024 30.24 853 25.19 6.4 43.5 82 3.6 38.5
04:05 1024 30.24 853 25.19 6.3 43.3 82 3.5 38.3
04:10 1024 30.24 853 25.19 6.4 43.5 82 3.6 38.4
04:15 1024 30.24 853 25.19 6.4 43.5 83 3.6 38.5
04:20 1024 30.24 853 25.19 6.4 43.5 83 3.6 38.5
04:25 1024 30.24 853 25.19 6.3 43.4 83 3.7 38.6
04:30 1024 30.24 853 25.19 6.3 43.4 82 3.5 38.2
04:35 1024 30.24 853 25.19 6.5 43.6 81 3.5 38.3
04:40 1024 30.24 853 25.19 6.5 43.7 81 3.5 38.4
04:45 1024 30.24 853 25.19 6.5 43.7 80 3.3 37.9
04:50 1024 30.24 853 25.19 6.5 43.8 80 3.4 38.1
04:55 1024 30.24 853 25.19 6.6 43.8 80 3.3 38
05:00 1024 30.24 853 25.19 6.6 43.8 80 3.3 37.9
05:05 1024 30.24 853 25.19 6.5 43.8 80 3.3 37.9
05:10 1024 30.24 853 25.19 6.6 43.8 79 3.2 37.8
05:15 1024 30.24 853 25.19 6.5 43.7 79 3.1 37.6
05:20 1024 30.24 853 25.19 6.5 43.7 79 3.2 37.8
05:25 1024 30.24 853 25.19 6.4 43.6 79 3 37.4
05:30 1024 30.24 853 25.19 6.4 43.5 79 3 37.4
05:35 1024 30.24 853 25.19 6.4 43.5 79 2.9 37.3
05:40 1024 30.24 853 25.19 6.3 43.3 79 3 37.4
05:45 1024 30.24 853 25.19 6.2 43.1 79 2.8 37.1
05:50 1024 30.24 853 25.19 6.1 43.1 79 2.7 36.9
05:55 1024 30.24 853 25.19 6.2 43.1 78 2.7 36.9
06:00 1024 30.24 853 25.19 6.2 43.1 78 2.6 36.7
06:05 1024 30.24 853 25.19 6.2 43.1 79 2.8 37
06:10 1024 30.24 853 25.19 6 42.9 80 2.9 37.1
06:15 1024 30.24 853 25.19 6 42.8 80 2.8 37.1
06:20 1024 30.24 853 25.19 6 42.7 81 2.9 37.2
06:25 1024 30.24 853 25.19 6 42.7 81 2.9 37.2
06:30 1024 30.24 853 25.19 5.9 42.7 80 2.8 37
06:35 1024 30.24 853 25.19 5.9 42.7 80 2.7 36.9
06:40 1024 30.24 853 25.19 6 42.9 80 2.8 37
06:45 1024 30.24 853 25.19 6.1 43 80 2.9 37.2
06:50 1023 30.21 853 25.19 6.1 43 80 2.9 37.2
06:55 1023 30.21 853 25.19 6.2 43.1 79 2.9 37.2
07:00 1024 30.24 853 25.19 6.2 43.1 79 2.8 37.1
07:05 1023 30.21 853 25.19 6.2 43.2 79 2.9 37.2
07:10 1023 30.21 853 25.19 6.3 43.3 79 2.9 37.2
07:15 1024 30.24 853 25.19 6.4 43.5 78 2.9 37.2
07:20 1024 30.24 853 25.19 6.4 43.5 78 2.8 37.1
07:25 1024 30.24 853 25.19 6.4 43.6 78 2.9 37.2
07:30 1024 30.24 853 25.19 6.4 43.5 78 2.9 37.3
07:35 1024 30.24 853 25.19 6.4 43.6 79 3 37.4
07:40 1024 30.24 853 25.19 6.5 43.6 78 3 37.4
07:45 1024 30.24 853 25.19 6.5 43.7 78 2.9 37.1
07:50 1024 30.24 853 25.19 6.6 43.9 78 3 37.4
07:55 1024 30.24 853 25.19 6.7 44.1 78 3.1 37.6
08:00 1024 30.24 853 25.19 6.8 44.3 77 3.1 37.6
08:05 1024 30.24 853 25.19 6.9 44.5 77 3.2 37.7
08:10 1024 30.24 853 25.19 7.1 44.8 77 3.3 37.9
08:15 1024 30.24 853 25.19 7.2 44.9 76 3.2 37.7
08:20 1024 30.24 853 25.19 7.3 45.1 76 3.3 38
08:25 1024 30.24 853 25.19 7.4 45.4 75 3.3 38
08:30 1024 30.24 853 25.19 7.5 45.4 74 3.1 37.6
08:35 1024 30.24 853 25.19 7.6 45.6 75 3.4 38.1
08:40 1024 30.24 853 25.19 7.6 45.7 75 3.4 38.2
08:45 1024 30.24 853 25.19 7.8 46.1 74 3.4 38.2
08:50 1024 30.24 853 25.19 7.9 46.3 73 3.3 38
08:55 1024 30.24 853 25.19 7.9 46.2 73 3.4 38.1
09:00 1024 30.24 853 25.19 7.8 46.1 74 3.4 38.2
09:05 1024 30.24 853 25.19 7.9 46.2 74 3.5 38.3
09:10 1024 30.24 853 25.19 7.8 46.1 74 3.5 38.3
09:15 1024 30.24 853 25.19 7.8 46.1 75 3.6 38.5
09:20 1024 30.24 853 25.19 7.9 46.3 75 3.7 38.7
09:25 1024 30.24 853 25.19 8 46.4 74 3.7 38.7
09:30 1024 30.24 853 25.19 8.1 46.6 73 3.5 38.3
09:35 1024 30.24 853 25.19 8.2 46.7 71 3.3 38
09:40 1024 30.24 853 25.19 8.2 46.7 71 3.3 37.9
09:45 1024 30.24 853 25.19 8.2 46.8 71 3.4 38.1
09:50 1024 30.24 853 25.19 8.3 47 70 3.3 37.9
09:55 1024 30.24 853 25.19 8.4 47.1 70 3.4 38
10:00 1024 30.24 853 25.19 8.4 47.1 71 3.4 38.2
10:05 1024 30.24 853 25.19 8.3 47 70 3.3 37.9
10:10 1024 30.24 853 25.19 8.3 46.9 72 3.5 38.4
10:15 1024 30.24 853 25.19 8.3 47 71 3.4 38.2
10:20 1024 30.24 853 25.19 8.2 46.8 71 3.3 38
10:25 1024 30.24 853 25.19 8.3 46.9 72 3.5 38.3
10:30 1024 30.24 853 25.19 8.3 46.9 72 3.6 38.5
10:35 1024 30.24 853 25.19 8.3 47 72 3.7 38.6
10:40 1024 30.24 853 25.19 8.3 47 73 3.9 38.9
10:45 1024 30.24 853 25.19 8.3 47 73 3.8 38.8
10:50 1024 30.24 853 25.19 8.2 46.8 74 3.8 38.9
10:55 1024 30.24 853 25.19 8.3 46.9 74 3.9 39
11:00 1024 30.24 853 25.19 8.2 46.8 74 3.9 39
11:05 1024 30.24 853 25.19 8.5 47.2 73 3.9 39
11:10 1024 30.24 853 25.19 8.6 47.5 72 3.9 39
11:15 1024 30.24 853 25.19 8.9 48 71 3.9 39.1
11:20 1024 30.24 853 25.19 9.1 48.4 71 4.2 39.5
11:25 1024 30.24 853 25.19 9.3 48.8 68 3.7 38.6
11:30 1024 30.24 853 25.19 9.8 49.6 68 4.2 39.5
11:35 1024 30.24 853 25.19 10 50 67 4.1 39.4
11:40 1024 30.24 853 25.19 10.2 50.4 66 4.2 39.5
11:45 1024 30.24 853 25.19 10.2 50.4 65 4 39.1
11:50 1024 30.24 853 25.19 10.7 51.3 65 4.5 40.1
11:55 1023 30.21 853 25.19 10.6 51 65 4.3 39.7
12:00 1023 30.21 853 25.19 10.3 50.6 66 4.2 39.5
12:05 1023 30.21 853 25.19 10.7 51.3 65 4.5 40.2
12:10 1023 30.21 853 25.19 10.7 51.3 64 4.2 39.6
12:15 1023 30.21 853 25.19 10.6 51.1 66 4.6 40.2
12:20 1023 30.21 853 25.19 10.9 51.7 64 4.4 39.9
12:25 1023 30.21 853 25.19 10.8 51.4 65 4.4 40
12:30 1023 30.21 852 25.16 10.4 50.6 67 4.5 40.1
12:35 1023 30.21 852 25.16 10 49.9 69 4.5 40.1
12:40 1023 30.21 852 25.16 9.9 49.8 68 4.3 39.8
12:45 1023 30.21 852 25.16 10.2 50.4 68 4.5 40.1
12:50 1023 30.21 852 25.16 10.4 50.7 67 4.7 40.4
12:55 1023 30.21 852 25.16 10.4 50.7 69 4.9 40.8
13:00 1023 30.21 852 25.16 10.6 51.1 66 4.5 40.1
13:05 1023 30.21 852 25.16 10.5 50.8 68 4.8 40.6
13:10 1023 30.21 852 25.16 10.6 51.1 65 4.4 40
13:15 1023 30.21 852 25.16 11 51.8 64 4.5 40.1
13:20 1023 30.21 852 25.16 10.7 51.3 67 4.8 40.7
13:25 1023 30.21 852 25.16 11.2 52.1 65 5 40.9
13:30 1023 30.21 852 25.16 11.2 52.2 64 4.8 40.7
13:35 1023 30.21 852 25.16 11 51.9 65 4.8 40.7
13:40 1023 30.21 852 25.16 10.9 51.7 66 4.8 40.6
13:45 1023 30.21 852 25.16 11 51.8 65 4.8 40.6
13:50 1023 30.21 852 25.16 11.1 52 66 5 40.9
13:55 1023 30.21 852 25.16 11.4 52.4 63 4.5 40.1
14:00 1023 30.21 852 25.16 11.5 52.7 63 4.7 40.5
14:05 1023 30.21 852 25.16 11.5 52.8 65 5.2 41.4
14:10 1023 30.21 852 25.16 11.2 52.2 66 5.1 41.1
14:15 1023 30.21 852 25.16 12 53.7 63 5.3 41.6
14:20 1023 30.21 852 25.16 12.1 53.8 63 5.3 41.5
14:25 1023 30.21 852 25.16 12.1 53.7 63 5.3 41.5
14:30 1023 30.21 852 25.16 13.1 55.5 58 5.1 41.2
14:35 1023 30.21 852 25.16 12.8 55.1 61 5.6 42
14:40 1023 30.21 852 25.16 13.1 55.5 57 4.9 40.7
14:45 1023 30.21 852 25.16 12.9 55.1 60 5.3 41.5
14:50 1023 30.21 852 25.16 12.5 54.4 60 5.1 41.1
14:55 1023 30.21 852 25.16 12.4 54.3 60 5 40.9
15:00 1023 30.21 852 25.16 12.2 54 61 5 41
15:05 1023 30.21 852 25.16 11.9 53.4 62 5 40.9
15:10 1023 30.21 852 25.16 12.3 54.1 61 5.1 41.2
15:15 1023 30.21 852 25.16 12.4 54.2 60 4.8 40.7
15:20 1023 30.21 852 25.16 12.3 54.1 62 5.2 41.4
15:25 1023 30.21 852 25.16 12.5 54.4 61 5.2 41.4
15:30 1022 30.18 852 25.16 12.3 54.1 61 5 40.9
15:35 1023 30.21 852 25.16 12.1 53.8 61 5 40.9
15:40 1023 30.21 852 25.16 12.1 53.8 61 4.8 40.6
15:45 1022 30.18 852 25.16 12.4 54.2 59 4.5 40.1
15:50 1022 30.18 852 25.16 12.6 54.6 59 4.9 40.8
15:55 1022 30.18 852 25.16 12.7 54.8 59 4.8 40.7
16:00 1022 30.18 852 25.16 12.3 54.2 59 4.6 40.3
16:05 1022 30.18 852 25.16 12.2 54 60 4.7 40.4
16:10 1022 30.18 852 25.16 12.3 54.2 58 4.3 39.8
16:15 1022 30.18 852 25.16 12.6 54.7 58 4.6 40.3
16:20 1022 30.18 852 25.16 13.1 55.6 56 4.5 40.1
16:25 1022 30.18 852 25.16 13.3 55.9 55 4.5 40
16:30 1022 30.18 852 25.16 13.2 55.8 57 4.9 40.7
16:35 1022 30.18 852 25.16 13.4 56.1 54 4.4 40
16:40 1022 30.18 852 25.16 13.4 56.1 55 4.5 40.2
16:45 1022 30.18 852 25.16 12.9 55.3 57 4.7 40.5
16:50 1022 30.18 852 25.16 13.1 55.6 55 4.5 40
16:55 1022 30.18 852 25.16 13.2 55.8 56 4.8 40.6
17:00 1022 30.18 852 25.16 13.3 55.9 57 4.9 40.8
17:05 1022 30.18 852 25.16 13.2 55.8 56 4.8 40.6
17:10 1022 30.18 851 25.13 13.6 56.5 55 4.7 40.5
17:15 1022 30.18 851 25.13 13.4 56.1 56 4.7 40.5
17:20 1022 30.18 851 25.13 13.1 55.5 57 4.8 40.7
17:25 1022 30.18 851 25.13 13 55.4 57 4.8 40.6
17:30 1022 30.18 851 25.13 13.1 55.6 56 4.6 40.3
17:35 1022 30.18 851 25.13 13.5 56.3 55 4.7 40.5
17:40 1022 30.18 851 25.13 13.2 55.8 58 5.3 41.5
17:45 1022 30.18 851 25.13 13.3 55.9 57 5 41
17:50 1022 30.18 851 25.13 13.3 55.9 56 4.8 40.7
17:55 1022 30.18 851 25.13 13.3 56 55 4.6 40.4
18:00 1022 30.18 851 25.13 13.3 55.9 56 4.7 40.5
18:05 1022 30.18 851 25.13 13.3 55.9 58 5.3 41.5
18:10 1022 30.18 851 25.13 13.1 55.6 57 4.9 40.9
18:15 1022 30.18 851 25.13 13.2 55.7 57 5 41.1
18:20 1022 30.18 851 25.13 13.1 55.6 57 4.8 40.6
18:25 1022 30.18 851 25.13 13.1 55.5 57 4.7 40.5
18:30 1022 30.18 851 25.13 13.4 56.1 56 4.8 40.7
18:35 1022 30.18 851 25.13 13.5 56.3 56 5.1 41.1
18:40 1022 30.18 851 25.13 13.5 56.2 56 4.8 40.7
18:45 1022 30.18 851 25.13 13.2 55.8 56 4.6 40.3
18:50 1022 30.18 851 25.13 13.3 55.9 57 4.9 40.9
18:55 1022 30.18 851 25.13 13.1 55.6 58 5.2 41.4
19:00 1022 30.18 851 25.13 12.9 55.1 57 4.7 40.5
19:05 1022 30.18 851 25.13 12.9 55.2 58 4.8 40.7
19:10 1022 30.18 851 25.13 12.8 55 59 5.1 41.2
19:15 1022 30.18 851 25.13 12.8 55 60 5.3 41.6
19:20 1022 30.18 851 25.13 12.8 55 60 5.2 41.3
19:25 1022 30.18 851 25.13 12.8 55.1 60 5.2 41.4
19:30 1022 30.18 851 25.13 12.9 55.3 60 5.4 41.8
19:35 1022 30.18 851 25.13 12.9 55.2 61 5.6 42.1
19:40 1022 30.18 851 25.13 12.8 55 61 5.4 41.7
19:45 1022 30.18 851 25.13 12.6 54.6 62 5.6 42.1
19:50 1022 30.18 851 25.13 12.5 54.5 63 5.6 42.1
19:55 1022 30.18 851 25.13 12.4 54.4 64 5.8 42.5
20:00 1022 30.18 851 25.13 12.3 54.2 63 5.6 42.1
20:05 1022 30.18 851 25.13 12.2 53.9 63 5.4 41.8
20:10 1022 30.18 851 25.13 12.1 53.7 65 5.7 42.2
20:15 1022 30.18 851 25.13 11.9 53.4 66 5.7 42.3
20:20 1022 30.18 851 25.13 11.8 53.2 67 6 42.8
20:25 1022 30.18 851 25.13 11.6 52.9 68 6 42.8
20:30 1022 30.18 851 25.13 11.4 52.5 69 5.9 42.7
20:35 1022 30.18 851 25.13 11.2 52.1 70 5.9 42.6
20:40 1022 30.18 851 25.13 11 51.8 70 5.9 42.5
20:45 1022 30.18 851 25.13 10.8 51.4 71 5.8 42.4
20:50 1022 30.18 851 25.13 10.6 51.2 71 5.7 42.3
20:55 1022 30.18 851 25.13 10.5 50.9 72 5.6 42.1
21:00 1022 30.18 851 25.13 10.4 50.7 72 5.5 42
21:05 1022 30.18 851 25.13 10.3 50.6 72 5.5 41.9
21:10 1022 30.18 851 25.13 10.2 50.3 72 5.4 41.7
21:15 1022 30.18 851 25.13 10.1 50.1 73 5.4 41.7
21:20 1022 30.18 851 25.13 10 49.9 73 5.3 41.5
21:25 1022 30.18 851 25.13 9.8 49.7 73 5.2 41.4
21:30 1022 30.18 851 25.13 9.8 49.7 72 5.1 41.2
21:35 1022 30.18 851 25.13 9.8 49.7 72 5.1 41.2
21:40 1022 30.18 851 25.13 9.8 49.6 73 5.2 41.4
21:45 1022 30.18 851 25.13 9.6 49.2 75 5.4 41.7
21:50 1022 30.18 851 25.13 9.1 48.5 79 5.7 42.3
21:55 1022 30.18 851 25.13 8.6 47.4 81 5.6 42
22:00 1022 30.18 851 25.13 8.3 46.9 82 5.5 41.8
22:05 1022 30.18 851 25.13 8.1 46.6 83 5.4 41.6
22:10 1022 30.18 851 25.13 8 46.4 83 5.3 41.5
22:15 1022 30.18 851 25.13 7.9 46.2 83 5.1 41.3
22:20 1022 30.18 851 25.13 7.8 46 83 5 41
22:25 1022 30.18 851 25.13 7.7 45.8 83 5 40.9
22:30 1022 30.18 851 25.13 7.6 45.6 82 4.7 40.5
22:35 1022 30.18 851 25.13 7.6 45.6 81 4.6 40.3
22:40 1022 30.18 851 25.13 7.5 45.5 82 4.6 40.3
22:45 1022 30.18 851 25.13 7.3 45.2 82 4.5 40.2
22:50 1022 30.18 851 25.13 7.2 44.9 83 4.4 40
22:55 1022 30.18 851 25.13 7 44.6 83 4.4 39.8
23:00 1022 30.18 851 25.13 7 44.6 83 4.3 39.7
23:05 1022 30.18 851 25.13 7 44.6 83 4.2 39.6
23:10 1022 30.18 851 25.13 6.9 44.5 83 4.2 39.6
23:15 1022 30.18 851 25.13 6.8 44.2 83 4.2 39.5
23:20 1022 30.18 851 25.13 6.8 44.2 83 4.1 39.4
23:25 1022 30.18 851 25.13 6.9 44.4 83 4.2 39.6
23:30 1022 30.18 851 25.13 7 44.6 82 4.1 39.5
23:35 1022 30.18 851 25.13 7.1 44.8 82 4.3 39.7
23:40 1022 30.18 851 25.13 7 44.6 83 4.2 39.6
23:45 1022 30.18 851 25.13 6.9 44.5 83 4.3 39.8
23:50 1022 30.18 851 25.13 6.9 44.5 82 4.1 39.4
23:55 1022 30.18 851 25.13 6.9 44.5 83 4.2 39.5
24:00 1022 30.18 851 25.13 7 44.6 82 4.1 39.4